sensor_id;sensor_type;location;lat;lon;timestamp;P1;durP1;ratioP1;P2;durP2;ratioP2
66665;SDS011;53566;50.814;20.688;2022-08-01T00:00:11;7.180000000000001;;;4.72;;
66665;SDS011;53566;50.814;20.688;2022-08-01T00:07:19;8.05;;;5.18;;
66665;SDS011;53566;50.814;20.688;2022-08-01T00:14:01;9.559999999999999;;;6.18;;
66665;SDS011;53566;50.814;20.688;2022-08-01T00:21:06;10.25;;;6.57;;
66665;SDS011;53566;50.814;20.688;2022-08-01T00:28:04;12.24;;;7.8;;
66665;SDS011;53566;50.814;20.688;2022-08-01T00:35:15;13.180000000000001;;;8.44;;
66665;SDS011;53566;50.814;20.688;2022-08-01T00:42:05;14.17;;;9.01;;
66665;SDS011;53566;50.814;20.688;2022-08-01T00:49:19;15.81;;;10.01;;
66665;SDS011;53566;50.814;20.688;2022-08-01T00:56:23;16.54;;;10.479999999999999;;
66665;SDS011;53566;50.814;20.688;2022-08-01T01:00:03;17.23;;;10.94;;
66665;SDS011;53566;50.814;20.688;2022-08-01T01:07:21;17.71;;;11.28;;
66665;SDS011;53566;50.814;20.688;2022-08-01T01:14:26;18.56;;;11.829999999999998;;
66665;SDS011;53566;50.814;20.688;2022-08-01T01:29:02;18.639999999999997;;;11.96;;
66665;SDS011;53566;50.814;20.688;2022-08-01T01:35:59;18.44;;;11.79;;
66665;SDS011;53566;50.814;20.688;2022-08-01T01:42:27;18.25;;;11.68;;
66665;SDS011;53566;50.814;20.688;2022-08-01T01:49:50;17.86;;;11.37;;
66665;SDS011;53566;50.814;20.688;2022-08-01T01:56:32;17.669999999999998;;;11.22;;
66665;SDS011;53566;50.814;20.688;2022-08-01T02:00:07;17.55;;;11.299999999999999;;
66665;SDS011;53566;50.814;20.688;2022-08-01T02:07:24;17.54;;;11.2;;
66665;SDS011;53566;50.814;20.688;2022-08-01T02:14:02;17.75;;;11.34;;
66665;SDS011;53566;50.814;20.688;2022-08-01T02:21:30;17.93;;;11.52;;
66665;SDS011;53566;50.814;20.688;2022-08-01T02:28:45;18.99;;;12.02;;
66665;SDS011;53566;50.814;20.688;2022-08-01T02:35:26;19.64;;;12.370000000000001;;
66665;SDS011;53566;50.814;20.688;2022-08-01T02:42:30;19.84;;;12.59;;
66665;SDS011;53566;50.814;20.688;2022-08-01T02:49:38;20.34;;;12.86;;
66665;SDS011;53566;50.814;20.688;2022-08-01T02:56:05;20.41;;;12.9;;
66665;SDS011;53566;50.814;20.688;2022-08-01T03:00:28;20.63;;;12.92;;
66665;SDS011;53566;50.814;20.688;2022-08-01T03:07:02;20.57;;;12.93;;
66665;SDS011;53566;50.814;20.688;2022-08-01T03:14:14;20.599999999999998;;;12.99;;
66665;SDS011;53566;50.814;20.688;2022-08-01T03:21:02;20.509999999999998;;;12.86;;
66665;SDS011;53566;50.814;20.688;2022-08-01T03:28:16;20.25;;;12.6;;
66665;SDS011;53566;50.814;20.688;2022-08-01T03:35:01;19.88;;;12.5;;
66665;SDS011;53566;50.814;20.688;2022-08-01T03:42:46;19.31;;;12.209999999999999;;
66665;SDS011;53566;50.814;20.688;2022-08-01T03:49:41;18.930000000000003;;;12.049999999999999;;
66665;SDS011;53566;50.814;20.688;2022-08-01T03:56:08;18.650000000000002;;;11.85;;
66665;SDS011;53566;50.814;20.688;2022-08-01T04:00:11;18.26;;;11.530000000000001;;
66665;SDS011;53566;50.814;20.688;2022-08-01T04:07:24;17.77;;;11.32;;
66665;SDS011;53566;50.814;20.688;2022-08-01T04:14:06;17.12;;;10.84;;
66665;SDS011;53566;50.814;20.688;2022-08-01T04:21:31;16.779999999999998;;;10.700000000000001;;
66665;SDS011;53566;50.814;20.688;2022-08-01T04:28:36;16.1;;;10.44;;
66665;SDS011;53566;50.814;20.688;2022-08-01T04:35:20;15.98;;;10.379999999999999;;
66665;SDS011;53566;50.814;20.688;2022-08-01T04:42:13;15.95;;;10.41;;
66665;SDS011;53566;50.814;20.688;2022-08-01T04:49:20;16.28;;;10.530000000000001;;
66665;SDS011;53566;50.814;20.688;2022-08-01T04:56:20;16.4;;;10.67;;
66665;SDS011;53566;50.814;20.688;2022-08-01T05:00:00;16.45;;;10.7;;
66665;SDS011;53566;50.814;20.688;2022-08-01T05:07:17;16.66;;;10.8;;
66665;SDS011;53566;50.814;20.688;2022-08-01T05:14:02;17.21;;;11.07;;
66665;SDS011;53566;50.814;20.688;2022-08-01T05:21:03;17.27;;;11.12;;
66665;SDS011;53566;50.814;20.688;2022-08-01T05:28:05;17.59;;;11.39;;
66665;SDS011;53566;50.814;20.688;2022-08-01T05:35:07;17.87;;;11.450000000000001;;
66665;SDS011;53566;50.814;20.688;2022-08-01T05:42:16;18.06;;;11.59;;
66665;SDS011;53566;50.814;20.688;2022-08-01T05:49:06;17.99;;;11.6;;
66665;SDS011;53566;50.814;20.688;2022-08-01T05:56:20;18.16;;;11.78;;
66665;SDS011;53566;50.814;20.688;2022-08-01T06:00:05;18.3;;;11.74;;
66665;SDS011;53566;50.814;20.688;2022-08-01T06:07:02;18.19;;;11.7;;
66665;SDS011;53566;50.814;20.688;2022-08-01T06:14:02;18.380000000000003;;;11.9;;
66665;SDS011;53566;50.814;20.688;2022-08-01T06:21:02;18.79;;;11.98;;
66665;SDS011;53566;50.814;20.688;2022-08-01T06:28:15;18.25;;;11.75;;
66665;SDS011;53566;50.814;20.688;2022-08-01T06:35:14;17.979999999999997;;;11.520000000000001;;
66665;SDS011;53566;50.814;20.688;2022-08-01T06:42:16;17.7;;;11.32;;
66665;SDS011;53566;50.814;20.688;2022-08-01T06:49:24;16.71;;;10.74;;
66665;SDS011;53566;50.814;20.688;2022-08-01T06:56:20;16.36;;;10.44;;
66665;SDS011;53566;50.814;20.688;2022-08-01T07:00:36;15.77;;;10.18;;
66665;SDS011;53566;50.814;20.688;2022-08-01T07:07:02;15.190000000000001;;;9.739999999999998;;
66665;SDS011;53566;50.814;20.688;2022-08-01T07:14:17;13.4;;;8.78;;
66665;SDS011;53566;50.814;20.688;2022-08-01T07:21:19;12.5;;;8.209999999999999;;
66665;SDS011;53566;50.814;20.688;2022-08-01T07:28:17;11.95;;;7.89;;
66665;SDS011;53566;50.814;20.688;2022-08-01T07:35:02;11.520000000000001;;;7.58;;
66665;SDS011;53566;50.814;20.688;2022-08-01T07:42:12;11.14;;;7.31;;
66665;SDS011;53566;50.814;20.688;2022-08-01T07:49:03;10.66;;;7.029999999999999;;
66665;SDS011;53566;50.814;20.688;2022-08-01T07:56:19;10.29;;;6.84;;
66665;SDS011;53566;50.814;20.688;2022-08-01T08:00:06;10.200000000000001;;;6.77;;
66665;SDS011;53566;50.814;20.688;2022-08-01T08:07:14;10.24;;;6.760000000000001;;
66665;SDS011;53566;50.814;20.688;2022-08-01T08:14:04;10.24;;;6.79;;
66665;SDS011;53566;50.814;20.688;2022-08-01T08:21:15;10.06;;;6.68;;
66665;SDS011;53566;50.814;20.688;2022-08-01T08:28:16;9.459999999999999;;;6.27;;
66665;SDS011;53566;50.814;20.688;2022-08-01T08:35:06;9.209999999999999;;;6.09;;
66665;SDS011;53566;50.814;20.688;2022-08-01T08:42:10;8.91;;;5.890000000000001;;
66665;SDS011;53566;50.814;20.688;2022-08-01T08:49:25;8.34;;;5.4799999999999995;;
66665;SDS011;53566;50.814;20.688;2022-08-01T08:56:29;8.08;;;5.319999999999999;;
66665;SDS011;53566;50.814;20.688;2022-08-01T09:00:23;7.78;;;5.109999999999999;;
66665;SDS011;53566;50.814;20.688;2022-08-01T09:07:03;7.65;;;5.0200000000000005;;
66665;SDS011;53566;50.814;20.688;2022-08-01T09:14:10;7.2;;;4.720000000000001;;
66665;SDS011;53566;50.814;20.688;2022-08-01T09:21:39;7.069999999999999;;;4.61;;
66665;SDS011;53566;50.814;20.688;2022-08-01T09:28:06;6.71;;;4.35;;
66665;SDS011;53566;50.814;20.688;2022-08-01T09:35:56;6.65;;;4.36;;
66665;SDS011;53566;50.814;20.688;2022-08-01T09:42:23;6.6;;;4.319999999999999;;
66665;SDS011;53566;50.814;20.688;2022-08-01T09:49:07;6.5;;;4.289999999999999;;
66665;SDS011;53566;50.814;20.688;2022-08-01T09:56:13;6.52;;;4.3;;
66665;SDS011;53566;50.814;20.688;2022-08-01T10:00:18;6.4799999999999995;;;4.289999999999999;;
66665;SDS011;53566;50.814;20.688;2022-08-01T10:07:13;6.5200000000000005;;;4.289999999999999;;
66665;SDS011;53566;50.814;20.688;2022-08-01T10:14:09;6.369999999999999;;;4.18;;
66665;SDS011;53566;50.814;20.688;2022-08-01T10:21:04;6.2;;;4.1;;
66665;SDS011;53566;50.814;20.688;2022-08-01T10:28:45;6.109999999999999;;;4.05;;
66665;SDS011;53566;50.814;20.688;2022-08-01T10:35:18;6.16;;;4.04;;
66665;SDS011;53566;50.814;20.688;2022-08-01T10:42:02;6.22;;;4.09;;
66665;SDS011;53566;50.814;20.688;2022-08-01T10:49:29;6.25;;;4.14;;
66665;SDS011;53566;50.814;20.688;2022-08-01T10:56:07;6.35;;;4.16;;
66665;SDS011;53566;50.814;20.688;2022-08-01T11:00:21;6.35;;;4.18;;
66665;SDS011;53566;50.814;20.688;2022-08-01T11:07:06;6.41;;;4.2700000000000005;;
66665;SDS011;53566;50.814;20.688;2022-08-01T11:14:07;6.68;;;4.44;;
66665;SDS011;53566;50.814;20.688;2022-08-01T11:21:04;6.92;;;4.609999999999999;;
66665;SDS011;53566;50.814;20.688;2022-08-01T11:28:16;7.25;;;4.86;;
66665;SDS011;53566;50.814;20.688;2022-08-01T11:35:29;7.47;;;5.0;;
66665;SDS011;53566;50.814;20.688;2022-08-01T11:42:24;7.609999999999999;;;5.069999999999999;;
66665;SDS011;53566;50.814;20.688;2022-08-01T11:49:57;7.98;;;5.35;;
66665;SDS011;53566;50.814;20.688;2022-08-01T11:56:19;8.12;;;5.47;;
66665;SDS011;53566;50.814;20.688;2022-08-01T12:00:25;8.27;;;5.56;;
66665;SDS011;53566;50.814;20.688;2022-08-01T12:07:36;8.549999999999999;;;5.720000000000001;;
66665;SDS011;53566;50.814;20.688;2022-08-01T12:14:03;8.629999999999999;;;5.78;;
66665;SDS011;53566;50.814;20.688;2022-08-01T12:21:02;8.75;;;5.83;;
66665;SDS011;53566;50.814;20.688;2022-08-01T12:28:26;8.959999999999999;;;5.97;;
66665;SDS011;53566;50.814;20.688;2022-08-01T12:35:30;8.85;;;5.930000000000001;;
66665;SDS011;53566;50.814;20.688;2022-08-01T12:42:27;8.98;;;6.0;;
66665;SDS011;53566;50.814;20.688;2022-08-01T12:49:15;8.889999999999999;;;5.95;;
66665;SDS011;53566;50.814;20.688;2022-08-01T12:56:04;8.91;;;5.96;;
66665;SDS011;53566;50.814;20.688;2022-08-01T13:00:27;8.969999999999999;;;5.96;;
66665;SDS011;53566;50.814;20.688;2022-08-01T13:07:18;9.02;;;6.0;;
66665;SDS011;53566;50.814;20.688;2022-08-01T13:14:27;9.030000000000001;;;5.96;;
66665;SDS011;53566;50.814;20.688;2022-08-01T13:21:12;8.95;;;5.9399999999999995;;
66665;SDS011;53566;50.814;20.688;2022-08-01T13:28:40;8.9;;;5.91;;
66665;SDS011;53566;50.814;20.688;2022-08-01T13:35:25;8.8;;;5.8;;
66665;SDS011;53566;50.814;20.688;2022-08-01T13:42:02;8.62;;;5.71;;
66665;SDS011;53566;50.814;20.688;2022-08-01T13:49:06;8.72;;;5.73;;
66665;SDS011;53566;50.814;20.688;2022-08-01T13:56:16;8.77;;;5.779999999999999;;
66665;SDS011;53566;50.814;20.688;2022-08-01T14:00:22;8.83;;;5.829999999999999;;
66665;SDS011;53566;50.814;20.688;2022-08-01T14:07:15;8.88;;;5.85;;
66665;SDS011;53566;50.814;20.688;2022-08-01T14:14:13;8.98;;;5.96;;
66665;SDS011;53566;50.814;20.688;2022-08-01T14:21:03;8.959999999999999;;;5.96;;
66665;SDS011;53566;50.814;20.688;2022-08-01T14:28:19;9.02;;;5.97;;
66665;SDS011;53566;50.814;20.688;2022-08-01T14:35:13;9.06;;;6.04;;
66665;SDS011;53566;50.814;20.688;2022-08-01T14:42:13;9.030000000000001;;;5.95;;
66665;SDS011;53566;50.814;20.688;2022-08-01T14:49:20;9.0;;;6.03;;
66665;SDS011;53566;50.814;20.688;2022-08-01T14:56:20;9.079999999999998;;;6.02;;
66665;SDS011;53566;50.814;20.688;2022-08-01T15:00:23;8.94;;;5.94;;
66665;SDS011;53566;50.814;20.688;2022-08-01T15:07:05;8.889999999999999;;;5.94;;
66665;SDS011;53566;50.814;20.688;2022-08-01T15:14:02;8.58;;;5.7299999999999995;;
66665;SDS011;53566;50.814;20.688;2022-08-01T15:21:17;8.54;;;5.72;;
66665;SDS011;53566;50.814;20.688;2022-08-01T15:28:19;8.37;;;5.66;;
66665;SDS011;53566;50.814;20.688;2022-08-01T15:35:14;8.51;;;5.7;;
66665;SDS011;53566;50.814;20.688;2022-08-01T15:42:14;8.629999999999999;;;5.8100000000000005;;
66665;SDS011;53566;50.814;20.688;2022-08-01T15:49:07;8.73;;;5.84;;
66665;SDS011;53566;50.814;20.688;2022-08-01T15:56:05;8.66;;;5.82;;
66665;SDS011;53566;50.814;20.688;2022-08-01T16:00:18;8.79;;;5.8999999999999995;;
66665;SDS011;53566;50.814;20.688;2022-08-01T16:07:17;9.74;;;6.43;;
66665;SDS011;53566;50.814;20.688;2022-08-01T16:14:02;10.07;;;6.67;;
66665;SDS011;53566;50.814;20.688;2022-08-01T16:21:06;11.28;;;7.36;;
66665;SDS011;53566;50.814;20.688;2022-08-01T16:28:16;12.93;;;8.44;;
66665;SDS011;53566;50.814;20.688;2022-08-01T16:35:02;13.62;;;8.88;;
66665;SDS011;53566;50.814;20.688;2022-08-01T16:42:14;14.01;;;9.110000000000001;;
66665;SDS011;53566;50.814;20.688;2022-08-01T16:49:35;15.860000000000001;;;10.29;;
66665;SDS011;53566;50.814;20.688;2022-08-01T16:56:19;16.34;;;10.58;;
66665;SDS011;53566;50.814;20.688;2022-08-01T17:00:27;16.83;;;10.87;;
66665;SDS011;53566;50.814;20.688;2022-08-01T17:07:03;16.400000000000002;;;10.72;;
66665;SDS011;53566;50.814;20.688;2022-08-01T17:14:02;16.889999999999997;;;11.040000000000001;;
66665;SDS011;53566;50.814;20.688;2022-08-01T17:21:02;16.509999999999998;;;10.85;;
66665;SDS011;53566;50.814;20.688;2022-08-01T17:28:05;15.46;;;10.219999999999999;;
66665;SDS011;53566;50.814;20.688;2022-08-01T17:35:04;15.01;;;9.879999999999999;;
66665;SDS011;53566;50.814;20.688;2022-08-01T17:42:02;15.709999999999999;;;10.32;;
66665;SDS011;53566;50.814;20.688;2022-08-01T17:49:21;15.879999999999999;;;10.319999999999999;;
66665;SDS011;53566;50.814;20.688;2022-08-01T17:56:07;16.77;;;10.969999999999999;;
66665;SDS011;53566;50.814;20.688;2022-08-01T18:00:17;17.51;;;11.35;;
66665;SDS011;53566;50.814;20.688;2022-08-01T18:07:16;17.77;;;11.559999999999999;;
66665;SDS011;53566;50.814;20.688;2022-08-01T18:14:03;18.840000000000003;;;12.16;;
66665;SDS011;53566;50.814;20.688;2022-08-01T18:21:19;18.86;;;12.13;;
66665;SDS011;53566;50.814;20.688;2022-08-01T18:28:15;19.69;;;12.77;;
66665;SDS011;53566;50.814;20.688;2022-08-01T18:35:19;20.05;;;13.040000000000001;;
66665;SDS011;53566;50.814;20.688;2022-08-01T18:42:14;19.59;;;12.790000000000001;;
66665;SDS011;53566;50.814;20.688;2022-08-01T18:49:30;19.08;;;12.49;;
66665;SDS011;53566;50.814;20.688;2022-08-01T18:56:17;18.3;;;12.1;;
66665;SDS011;53566;50.814;20.688;2022-08-01T19:00:19;17.84;;;11.799999999999999;;
66665;SDS011;53566;50.814;20.688;2022-08-01T19:07:03;18.139999999999997;;;12.02;;
66665;SDS011;53566;50.814;20.688;2022-08-01T19:14:02;18.18;;;12.12;;
66665;SDS011;53566;50.814;20.688;2022-08-01T19:21:17;18.02;;;12.01;;
66665;SDS011;53566;50.814;20.688;2022-08-01T19:28:19;19.43;;;12.77;;
66665;SDS011;53566;50.814;20.688;2022-08-01T19:35:18;20.15;;;13.24;;
66665;SDS011;53566;50.814;20.688;2022-08-01T19:42:38;21.5;;;14.07;;
66665;SDS011;53566;50.814;20.688;2022-08-01T19:49:24;21.63;;;14.219999999999999;;
66665;SDS011;53566;50.814;20.688;2022-08-01T19:56:03;21.959999999999997;;;14.360000000000001;;
66665;SDS011;53566;50.814;20.688;2022-08-01T20:00:06;22.75;;;14.739999999999998;;
66665;SDS011;53566;50.814;20.688;2022-08-01T20:07:17;22.86;;;15.0;;
66665;SDS011;53566;50.814;20.688;2022-08-01T20:14:02;23.7;;;15.5;;
66665;SDS011;53566;50.814;20.688;2022-08-01T20:21:26;24.209999999999997;;;15.629999999999999;;
66665;SDS011;53566;50.814;20.688;2022-08-01T20:28:28;23.36;;;15.370000000000001;;
66665;SDS011;53566;50.814;20.688;2022-08-01T20:35:02;23.19;;;15.24;;
66665;SDS011;53566;50.814;20.688;2022-08-01T20:42:16;23.36;;;15.299999999999999;;
66665;SDS011;53566;50.814;20.688;2022-08-01T20:49:35;24.96;;;16.05;;
66665;SDS011;53566;50.814;20.688;2022-08-01T20:56:15;26.63;;;16.92;;
66665;SDS011;53566;50.814;20.688;2022-08-01T21:00:04;27.07;;;17.05;;
66665;SDS011;53566;50.814;20.688;2022-08-01T21:07:50;27.01;;;17.03;;
66665;SDS011;53566;50.814;20.688;2022-08-01T21:14:03;27.099999999999998;;;16.95;;
66665;SDS011;53566;50.814;20.688;2022-08-01T21:21:15;26.9;;;16.93;;
66665;SDS011;53566;50.814;20.688;2022-08-01T21:28:02;27.130000000000003;;;16.87;;
66665;SDS011;53566;50.814;20.688;2022-08-01T21:35:13;26.95;;;16.84;;
66665;SDS011;53566;50.814;20.688;2022-08-01T21:42:18;26.689999999999998;;;16.66;;
66665;SDS011;53566;50.814;20.688;2022-08-01T21:49:32;25.48;;;16.17;;
66665;SDS011;53566;50.814;20.688;2022-08-01T22:00:22;23.279999999999998;;;15.16;;
66665;SDS011;53566;50.814;20.688;2022-08-01T22:07:19;23.05;;;15.180000000000001;;
66665;SDS011;53566;50.814;20.688;2022-08-01T22:14:08;23.349999999999998;;;15.29;;
66665;SDS011;53566;50.814;20.688;2022-08-01T22:21:25;23.669999999999998;;;15.5;;
66665;SDS011;53566;50.814;20.688;2022-08-01T22:28:21;23.75;;;15.66;;
66665;SDS011;53566;50.814;20.688;2022-08-01T22:35:18;24.11;;;15.81;;
66665;SDS011;53566;50.814;20.688;2022-08-01T22:42:37;24.41;;;16.06;;
66665;SDS011;53566;50.814;20.688;2022-08-01T22:49:36;24.310000000000002;;;16.02;;
66665;SDS011;53566;50.814;20.688;2022-08-01T22:56:23;24.060000000000002;;;15.85;;
66665;SDS011;53566;50.814;20.688;2022-08-01T23:00:06;24.19;;;15.94;;
66665;SDS011;53566;50.814;20.688;2022-08-01T23:07:08;24.439999999999998;;;16.01;;
66665;SDS011;53566;50.814;20.688;2022-08-01T23:14:14;24.82;;;16.28;;
66665;SDS011;53566;50.814;20.688;2022-08-01T23:21:21;24.84;;;16.26;;
66665;SDS011;53566;50.814;20.688;2022-08-01T23:28:12;25.18;;;16.34;;
66665;SDS011;53566;50.814;20.688;2022-08-01T23:35:05;25.15;;;16.3;;
66665;SDS011;53566;50.814;20.688;2022-08-01T23:42:16;25.1;;;16.29;;
66665;SDS011;53566;50.814;20.688;2022-08-01T23:49:02;25.099999999999998;;;16.38;;
66665;SDS011;53566;50.814;20.688;2022-08-01T23:56:16;25.57;;;16.619999999999997;;
